SWR188A LSZH-ZSPD
Flight info
| Callsign | SWR188A |
|---|---|
| Flight time | N/A |
| Altitude | 31000 |
| Route | DEGES Z2 UMVEG DCT DIMLO DCT INVED DCT SOKRU DCT DINRO DCT UDROS/N0483F330 DCT CRM UM11 TBN UN61 NOLGA DCT BARAD M747 LUSAL N701 LARGI B701 KRS A480 OTBOR/K0898F330 N147 EVTEV/K0889F350 N147 GENGA N143 RUDIZ N161 SARIN/K0885S1070 A368 FKG W188 LIKMI W270 POPIB/K0876S1130 W270 DKO W64 NUTLO B208 CGO W129 KAMDA W128 FYG B208 HFE R343 SASAN |
| Aircraft | A346/H-SDE2E3FGHIJ3J4J5M1RWXY/LB1D1 |
Departure
| Time | 2026-04-26 10:57 |
|---|---|
| Airport | Zürich Airport (LSZH) |
Arrival
| Time | N/A |
|---|---|
| Airport | Shanghai Pudong International Airport (ZSPD) |
| Time | Latitude | Longitude | Altitude | Speed | Heading |
|---|---|---|---|---|---|
| 2026-04-26 10:15 | 47.46193 | 8.55398 | 1395 ft | 0 kts | 186° |
| 2026-04-26 10:42 | 47.46204 | 8.55400 | 1396 ft | 2 kts | 187° |
| 2026-04-26 10:42 | 47.46218 | 8.55404 | 1396 ft | 2 kts | 202° |
| 2026-04-26 10:43 | 47.46231 | 8.55414 | 1397 ft | 2 kts | 218° |
| 2026-04-26 10:43 | 47.46242 | 8.55430 | 1397 ft | 2 kts | 232° |
| 2026-04-26 10:43 | 47.46250 | 8.55448 | 1397 ft | 2 kts | 246° |
| 2026-04-26 10:43 | 47.46255 | 8.55469 | 1397 ft | 2 kts | 261° |
| 2026-04-26 10:44 | 47.46256 | 8.55490 | 1397 ft | 1 kts | 275° |
| 2026-04-26 10:44 | 47.46255 | 8.55498 | 1397 ft | 0 kts | 277° |
| 2026-04-26 10:46 | 47.46256 | 8.55490 | 1397 ft | 1 kts | 277° |
| 2026-04-26 10:46 | 47.46258 | 8.55460 | 1397 ft | 4 kts | 277° |
| 2026-04-26 10:46 | 47.46263 | 8.55397 | 1397 ft | 11 kts | 276° |
| 2026-04-26 10:46 | 47.46273 | 8.55234 | 1394 ft | 18 kts | 276° |
| 2026-04-26 10:47 | 47.46286 | 8.55049 | 1394 ft | 17 kts | 276° |
| 2026-04-26 10:47 | 47.46301 | 8.54861 | 1391 ft | 19 kts | 277° |
| 2026-04-26 10:47 | 47.46358 | 8.54711 | 1390 ft | 15 kts | 339° |
| 2026-04-26 10:47 | 47.46451 | 8.54645 | 1390 ft | 14 kts | 334° |
| 2026-04-26 10:48 | 47.46568 | 8.54563 | 1390 ft | 25 kts | 335° |
| 2026-04-26 10:48 | 47.46774 | 8.54429 | 1389 ft | 38 kts | 338° |
| 2026-04-26 10:48 | 47.47004 | 8.54280 | 1389 ft | 24 kts | 336° |
| 2026-04-26 10:48 | 47.47011 | 8.54276 | 1389 ft | 1 kts | 336° |
| 2026-04-26 10:49 | 47.47016 | 8.54272 | 1389 ft | 2 kts | 336° |
| 2026-04-26 10:49 | 47.47034 | 8.54260 | 1389 ft | 4 kts | 336° |
| 2026-04-26 10:49 | 47.47055 | 8.54246 | 1389 ft | 6 kts | 335° |
| 2026-04-26 10:49 | 47.47106 | 8.54211 | 1388 ft | 9 kts | 335° |
| 2026-04-26 10:50 | 47.47174 | 8.54165 | 1387 ft | 11 kts | 335° |
| 2026-04-26 10:50 | 47.47223 | 8.54132 | 1388 ft | 11 kts | 336° |
| 2026-04-26 10:50 | 47.47319 | 8.54067 | 1390 ft | 11 kts | 335° |
| 2026-04-26 10:50 | 47.47393 | 8.54016 | 1390 ft | 12 kts | 335° |
| 2026-04-26 10:51 | 47.47412 | 8.54003 | 1390 ft | 12 kts | 335° |
| 2026-04-26 10:51 | 47.47513 | 8.53932 | 1392 ft | 12 kts | 333° |
| 2026-04-26 10:51 | 47.47584 | 8.53878 | 1394 ft | 10 kts | 333° |
| 2026-04-26 10:52 | 47.47649 | 8.53829 | 1396 ft | 10 kts | 333° |
| 2026-04-26 10:52 | 47.47694 | 8.53769 | 1397 ft | 8 kts | 291° |
| 2026-04-26 10:52 | 47.47685 | 8.53701 | 1397 ft | 7 kts | 230° |
| 2026-04-26 10:52 | 47.47631 | 8.53651 | 1396 ft | 10 kts | 204° |
| 2026-04-26 10:53 | 47.47561 | 8.53616 | 1396 ft | 10 kts | 181° |
| 2026-04-26 10:53 | 47.47483 | 8.53652 | 1394 ft | 13 kts | 157° |
| 2026-04-26 10:53 | 47.47444 | 8.53678 | 1393 ft | 0 kts | 156° |
| 2026-04-26 10:56 | 47.47443 | 8.53679 | 1393 ft | 0 kts | 156° |
| 2026-04-26 10:56 | 47.47414 | 8.53699 | 1393 ft | 15 kts | 155° |
| 2026-04-26 10:56 | 47.47096 | 8.53918 | 1388 ft | 85 kts | 154° |
| 2026-04-26 10:57 | 47.46357 | 8.54430 | 1391 ft | 145 kts | 156° |
| 2026-04-26 10:57 | 47.45284 | 8.55169 | 1401 ft | 193 kts | 154° |
| 2026-04-26 10:57 | 47.44028 | 8.56029 | 1772 ft | 202 kts | 153° |
| 2026-04-26 10:57 | 47.43373 | 8.56480 | 2072 ft | 200 kts | 155° |
| 2026-04-26 10:58 | 47.42234 | 8.57544 | 2662 ft | 192 kts | 127° |
| 2026-04-26 10:58 | 47.41826 | 8.59300 | 3121 ft | 181 kts | 79° |
| 2026-04-26 10:58 | 47.42316 | 8.60952 | 3355 ft | 179 kts | 50° |
| 2026-04-26 10:58 | 47.43205 | 8.62275 | 3491 ft | 186 kts | 41° |
| 2026-04-26 10:59 | 47.44218 | 8.63557 | 3639 ft | 196 kts | 40° |
| 2026-04-26 10:59 | 47.45296 | 8.64853 | 3836 ft | 204 kts | 38° |
| 2026-04-26 10:59 | 47.46340 | 8.66304 | 4014 ft | 214 kts | 59° |
| 2026-04-26 10:59 | 47.46668 | 8.68471 | 4125 ft | 226 kts | 99° |
| 2026-04-26 11:00 | 47.46494 | 8.70819 | 4321 ft | 239 kts | 94° |
| 2026-04-26 11:00 | 47.46401 | 8.73346 | 4565 ft | 253 kts | 90° |
| 2026-04-26 11:00 | 47.46395 | 8.75993 | 4908 ft | 263 kts | 88° |
| 2026-04-26 11:00 | 47.46471 | 8.78750 | 5273 ft | 274 kts | 84° |
| 2026-04-26 11:01 | 47.46571 | 8.81569 | 5717 ft | 281 kts | 90° |
| 2026-04-26 11:01 | 47.46375 | 8.84470 | 6287 ft | 285 kts | 99° |
| 2026-04-26 11:01 | 47.45997 | 8.87324 | 6867 ft | 287 kts | 101° |
| 2026-04-26 11:01 | 47.45578 | 8.90217 | 7410 ft | 289 kts | 101° |
| 2026-04-26 11:02 | 47.45162 | 8.93100 | 7941 ft | 292 kts | 101° |
| 2026-04-26 11:02 | 47.44743 | 8.96029 | 8477 ft | 294 kts | 101° |
| 2026-04-26 11:02 | 47.44320 | 8.98983 | 9020 ft | 296 kts | 101° |
| 2026-04-26 11:02 | 47.43894 | 9.01959 | 9532 ft | 298 kts | 101° |
| 2026-04-26 11:03 | 47.43464 | 9.04942 | 10030 ft | 301 kts | 101° |
| 2026-04-26 11:03 | 47.43028 | 9.07971 | 10523 ft | 304 kts | 101° |
| 2026-04-26 11:03 | 47.42583 | 9.11047 | 10779 ft | 316 kts | 101° |
| 2026-04-26 11:03 | 47.42112 | 9.14293 | 11024 ft | 329 kts | 101° |
| 2026-04-26 11:04 | 47.41656 | 9.17674 | 11243 ft | 341 kts | 96° |
| 2026-04-26 11:04 | 47.41559 | 9.21233 | 11444 ft | 352 kts | 85° |
| 2026-04-26 11:04 | 47.41919 | 9.24847 | 11685 ft | 363 kts | 77° |
| 2026-04-26 11:04 | 47.42477 | 9.28515 | 11959 ft | 375 kts | 76° |
| 2026-04-26 11:05 | 47.43069 | 9.32273 | 12325 ft | 381 kts | 76° |
| 2026-04-26 11:05 | 47.43666 | 9.36106 | 12841 ft | 384 kts | 76° |
| 2026-04-26 11:05 | 47.44258 | 9.39955 | 13328 ft | 387 kts | 77° |
| 2026-04-26 11:05 | 47.44850 | 9.43862 | 13814 ft | 391 kts | 77° |
| 2026-04-26 11:06 | 47.45435 | 9.47752 | 14265 ft | 394 kts | 77° |
| 2026-04-26 11:06 | 47.45913 | 9.50938 | 14658 ft | 397 kts | 77° |
| 2026-04-26 11:06 | 47.46219 | 9.52986 | 14894 ft | 398 kts | 77° |
| 2026-04-26 11:06 | 47.46768 | 9.56944 | 15321 ft | 402 kts | 80° |
| 2026-04-26 11:07 | 47.47055 | 9.61067 | 15768 ft | 405 kts | 87° |
| 2026-04-26 11:07 | 47.47028 | 9.65240 | 16213 ft | 408 kts | 94° |
| 2026-04-26 11:07 | 47.46861 | 9.68663 | 16571 ft | 410 kts | 95° |
| 2026-04-26 11:08 | 47.46772 | 9.70272 | 16733 ft | 412 kts | 95° |
| 2026-04-26 11:08 | 47.46527 | 9.74486 | 17156 ft | 415 kts | 95° |
| 2026-04-26 11:09 | 47.46280 | 9.78738 | 17593 ft | 417 kts | 95° |
| 2026-04-26 11:09 | 47.46036 | 9.82983 | 18017 ft | 420 kts | 95° |
| 2026-04-26 11:09 | 47.45793 | 9.87262 | 18430 ft | 422 kts | 95° |
| 2026-04-26 11:09 | 47.45548 | 9.91581 | 18837 ft | 425 kts | 94° |
| 2026-04-26 11:10 | 47.45298 | 9.95988 | 19218 ft | 428 kts | 95° |
| 2026-04-26 11:10 | 47.45052 | 10.00308 | 19637 ft | 430 kts | 95° |
| 2026-04-26 11:10 | 47.44806 | 10.04581 | 20001 ft | 433 kts | 95° |
| 2026-04-26 11:10 | 47.44551 | 10.08989 | 20374 ft | 435 kts | 95° |
| 2026-04-26 11:11 | 47.44291 | 10.13456 | 20750 ft | 438 kts | 95° |
| 2026-04-26 11:11 | 47.43969 | 10.17952 | 21117 ft | 441 kts | 97° |
| 2026-04-26 11:11 | 47.43475 | 10.22379 | 21490 ft | 443 kts | 101° |
| 2026-04-26 11:11 | 47.42884 | 10.26833 | 21839 ft | 446 kts | 101° |
| 2026-04-26 11:12 | 47.42270 | 10.31352 | 22181 ft | 449 kts | 101° |
| 2026-04-26 11:12 | 47.41655 | 10.35869 | 22538 ft | 451 kts | 101° |
| 2026-04-26 11:12 | 47.41036 | 10.40415 | 22853 ft | 454 kts | 101° |
| 2026-04-26 11:12 | 47.40414 | 10.44980 | 23195 ft | 457 kts | 101° |
| 2026-04-26 11:13 | 47.39794 | 10.49531 | 23521 ft | 459 kts | 101° |
| 2026-04-26 11:13 | 47.39160 | 10.54160 | 23837 ft | 462 kts | 101° |
| 2026-04-26 11:13 | 47.38522 | 10.58797 | 24166 ft | 464 kts | 101° |
| 2026-04-26 11:13 | 47.37874 | 10.63484 | 24497 ft | 466 kts | 101° |
| 2026-04-26 11:14 | 47.37228 | 10.68139 | 24820 ft | 468 kts | 101° |
| 2026-04-26 11:14 | 47.36570 | 10.72865 | 25117 ft | 471 kts | 101° |
| 2026-04-26 11:14 | 47.35914 | 10.77570 | 25429 ft | 473 kts | 101° |
| 2026-04-26 11:14 | 47.35251 | 10.82302 | 25736 ft | 475 kts | 101° |
| 2026-04-26 11:15 | 47.34582 | 10.87059 | 26020 ft | 477 kts | 101° |
| 2026-04-26 11:15 | 47.33908 | 10.91834 | 26300 ft | 479 kts | 101° |
| 2026-04-26 11:15 | 47.33229 | 10.96631 | 26588 ft | 481 kts | 101° |
| 2026-04-26 11:15 | 47.32549 | 11.01423 | 26852 ft | 483 kts | 101° |
| 2026-04-26 11:16 | 47.31852 | 11.06320 | 27130 ft | 485 kts | 101° |
| 2026-04-26 11:16 | 47.31166 | 11.11124 | 27386 ft | 487 kts | 101° |
| 2026-04-26 11:16 | 47.30468 | 11.15995 | 27645 ft | 489 kts | 101° |
| 2026-04-26 11:16 | 47.29754 | 11.20963 | 27905 ft | 491 kts | 101° |
| 2026-04-26 11:17 | 47.29048 | 11.25851 | 28164 ft | 492 kts | 101° |
| 2026-04-26 11:17 | 47.28336 | 11.30772 | 28394 ft | 495 kts | 101° |
| 2026-04-26 11:17 | 47.27611 | 11.35762 | 28660 ft | 496 kts | 101° |
| 2026-04-26 11:17 | 47.26895 | 11.40668 | 28996 ft | 495 kts | 101° |
| 2026-04-26 11:18 | 47.26171 | 11.45615 | 29373 ft | 494 kts | 101° |
| 2026-04-26 11:18 | 47.25472 | 11.50512 | 29694 ft | 493 kts | 100° |
| 2026-04-26 11:18 | 47.24897 | 11.55496 | 29968 ft | 494 kts | 98° |
| 2026-04-26 11:18 | 47.24351 | 11.60537 | 30211 ft | 495 kts | 98° |
| 2026-04-26 11:19 | 47.23812 | 11.65549 | 30422 ft | 497 kts | 98° |
| 2026-04-26 11:19 | 47.23264 | 11.70621 | 30623 ft | 498 kts | 98° |
| 2026-04-26 11:19 | 47.22716 | 11.75641 | 30828 ft | 499 kts | 98° |
| 2026-04-26 11:19 | 47.22169 | 11.80614 | 31011 ft | 500 kts | 99° |
| 2026-04-26 11:20 | 47.21607 | 11.85693 | 31215 ft | 501 kts | 99° |
| 2026-04-26 11:20 | 47.21230 | 11.89091 | 31266 ft | 502 kts | 98° |
| 2026-04-26 11:20 | 47.20053 | 12.00920 | 31267 ft | 501 kts | 97° |
| 2026-04-26 11:21 | 47.19086 | 12.11050 | 31279 ft | 500 kts | 97° |
| 2026-04-26 11:21 | 47.18092 | 12.21247 | 31288 ft | 500 kts | 97° |
| 2026-04-26 11:22 | 47.17096 | 12.31321 | 31285 ft | 500 kts | 97° |
| 2026-04-26 11:22 | 47.16085 | 12.41427 | 31287 ft | 500 kts | 97° |
| 2026-04-26 11:23 | 47.15062 | 12.51552 | 31286 ft | 500 kts | 97° |
| 2026-04-26 11:23 | 47.14034 | 12.61622 | 31287 ft | 500 kts | 97° |
| 2026-04-26 11:24 | 47.12988 | 12.71772 | 31272 ft | 500 kts | 98° |
| 2026-04-26 11:24 | 47.11947 | 12.81793 | 31252 ft | 500 kts | 98° |
| 2026-04-26 11:25 | 47.10889 | 12.91887 | 31241 ft | 500 kts | 98° |
| 2026-04-26 11:25 | 47.09824 | 13.01976 | 31236 ft | 500 kts | 98° |
| 2026-04-26 11:26 | 47.08747 | 13.12075 | 31236 ft | 499 kts | 98° |
| 2026-04-26 11:26 | 47.07671 | 13.22080 | 31235 ft | 499 kts | 98° |
| 2026-04-26 11:27 | 47.06575 | 13.32179 | 31229 ft | 499 kts | 98° |
| 2026-04-26 11:27 | 47.05481 | 13.42190 | 31231 ft | 499 kts | 98° |
| 2026-04-26 11:28 | 47.04384 | 13.52144 | 31229 ft | 499 kts | 98° |
| 2026-04-26 11:28 | 47.03274 | 13.62137 | 31223 ft | 499 kts | 98° |
| 2026-04-26 11:29 | 47.02145 | 13.72208 | 31225 ft | 498 kts | 99° |
| 2026-04-26 11:29 | 47.01019 | 13.82161 | 31226 ft | 498 kts | 99° |
| 2026-04-26 11:30 | 47.00069 | 13.90485 | 31230 ft | 498 kts | 99° |
| 2026-04-26 11:30 | 46.98732 | 14.02117 | 31234 ft | 497 kts | 99° |
| 2026-04-26 11:31 | 46.97591 | 14.11980 | 31235 ft | 497 kts | 99° |
| 2026-04-26 11:31 | 46.96427 | 14.21961 | 31230 ft | 497 kts | 99° |
| 2026-04-26 11:32 | 46.95253 | 14.31939 | 31224 ft | 498 kts | 99° |
| 2026-04-26 11:32 | 46.94073 | 14.41896 | 31216 ft | 498 kts | 99° |
| 2026-04-26 11:33 | 46.92883 | 14.51843 | 31210 ft | 498 kts | 99° |
| 2026-04-26 11:33 | 46.91678 | 14.61853 | 31201 ft | 498 kts | 99° |
| 2026-04-26 11:34 | 46.90479 | 14.71742 | 31194 ft | 498 kts | 99° |
| 2026-04-26 11:34 | 46.89264 | 14.81688 | 31192 ft | 497 kts | 99° |
| 2026-04-26 11:35 | 46.88042 | 14.91614 | 31189 ft | 498 kts | 99° |
| 2026-04-26 11:35 | 46.86806 | 15.01577 | 31191 ft | 498 kts | 99° |
| 2026-04-26 11:36 | 46.85565 | 15.11506 | 31182 ft | 498 kts | 99° |
| 2026-04-26 11:36 | 46.84315 | 15.21431 | 31169 ft | 498 kts | 99° |
| 2026-04-26 11:37 | 46.83058 | 15.31338 | 31152 ft | 499 kts | 99° |
| 2026-04-26 11:37 | 46.81790 | 15.41257 | 31149 ft | 500 kts | 99° |
| 2026-04-26 11:38 | 46.80512 | 15.51191 | 31149 ft | 499 kts | 99° |
| 2026-04-26 11:38 | 46.79221 | 15.61154 | 31148 ft | 499 kts | 99° |
| 2026-04-26 11:39 | 46.77934 | 15.71009 | 31147 ft | 500 kts | 100° |
| 2026-04-26 11:39 | 46.76624 | 15.80969 | 31151 ft | 500 kts | 100° |
| 2026-04-26 11:40 | 46.75309 | 15.90902 | 31150 ft | 501 kts | 100° |
| 2026-04-26 11:40 | 46.73981 | 16.00855 | 31151 ft | 500 kts | 100° |
| 2026-04-26 11:42 | 46.68586 | 16.40582 | 31166 ft | 501 kts | 100° |
| 2026-04-26 11:43 | 46.67351 | 16.50575 | 31171 ft | 501 kts | 97° |
| 2026-04-26 11:43 | 46.66243 | 16.60494 | 31180 ft | 501 kts | 97° |
| 2026-04-26 11:44 | 46.65110 | 16.70462 | 31186 ft | 501 kts | 98° |
| 2026-04-26 11:44 | 46.63953 | 16.80438 | 31194 ft | 501 kts | 98° |
| 2026-04-26 11:45 | 46.62781 | 16.90424 | 31200 ft | 500 kts | 98° |
| 2026-04-26 11:45 | 46.61599 | 17.00393 | 31201 ft | 501 kts | 98° |
| 2026-04-26 11:46 | 46.60419 | 17.10276 | 31201 ft | 501 kts | 98° |
| 2026-04-26 11:46 | 46.59216 | 17.20265 | 31201 ft | 502 kts | 98° |
| 2026-04-26 11:47 | 46.58009 | 17.30225 | 31203 ft | 503 kts | 98° |
| 2026-04-26 11:47 | 46.56791 | 17.40188 | 31197 ft | 503 kts | 98° |
| 2026-04-26 11:48 | 46.55566 | 17.50135 | 31191 ft | 503 kts | 98° |
| 2026-04-26 11:48 | 46.54324 | 17.60148 | 31196 ft | 503 kts | 98° |
| 2026-04-26 11:49 | 46.53083 | 17.70073 | 31195 ft | 504 kts | 99° |
| 2026-04-26 11:49 | 46.51826 | 17.80053 | 31192 ft | 504 kts | 99° |
| 2026-04-26 11:50 | 46.50558 | 17.90061 | 31191 ft | 504 kts | 99° |
| 2026-04-26 11:50 | 46.49287 | 18.00005 | 31191 ft | 505 kts | 99° |
| 2026-04-26 11:51 | 46.48002 | 18.09988 | 31191 ft | 506 kts | 99° |
| 2026-04-26 11:51 | 46.46704 | 18.19999 | 31190 ft | 506 kts | 99° |
| 2026-04-26 11:52 | 46.45398 | 18.29999 | 31187 ft | 506 kts | 98° |
| 2026-04-26 11:52 | 46.44089 | 18.39944 | 31186 ft | 507 kts | 98° |
| 2026-04-26 11:53 | 46.42764 | 18.49947 | 31184 ft | 507 kts | 98° |
| 2026-04-26 11:54 | 46.40756 | 18.64992 | 31181 ft | 508 kts | 98° |
| 2026-04-26 11:54 | 46.39410 | 18.74980 | 31179 ft | 508 kts | 99° |
| 2026-04-26 11:55 | 46.38046 | 18.85030 | 31176 ft | 509 kts | 99° |
| 2026-04-26 11:55 | 46.36677 | 18.95039 | 31173 ft | 509 kts | 99° |
| 2026-04-26 11:56 | 46.35309 | 19.04985 | 31170 ft | 509 kts | 99° |
| 2026-04-26 11:56 | 46.33918 | 19.15026 | 31166 ft | 509 kts | 99° |
| 2026-04-26 11:57 | 46.32516 | 19.25076 | 31160 ft | 510 kts | 99° |
| 2026-04-26 11:57 | 46.31111 | 19.35087 | 31159 ft | 510 kts | 99° |
| 2026-04-26 11:58 | 46.29691 | 19.45125 | 31152 ft | 511 kts | 99° |
| 2026-04-26 11:58 | 46.28258 | 19.55186 | 31150 ft | 512 kts | 99° |
| 2026-04-26 11:59 | 46.26817 | 19.65249 | 31147 ft | 512 kts | 99° |
| 2026-04-26 11:59 | 46.25369 | 19.75293 | 31140 ft | 512 kts | 99° |
| 2026-04-26 12:00 | 46.23918 | 19.85285 | 31138 ft | 512 kts | 99° |
| 2026-04-26 12:00 | 46.22448 | 19.95339 | 31133 ft | 512 kts | 99° |
| 2026-04-26 12:01 | 46.20980 | 20.05311 | 31132 ft | 512 kts | 99° |
| 2026-04-26 12:01 | 46.19489 | 20.15384 | 31122 ft | 513 kts | 99° |
| 2026-04-26 12:02 | 46.17996 | 20.25401 | 31121 ft | 513 kts | 99° |
| 2026-04-26 12:02 | 46.16493 | 20.35418 | 31113 ft | 513 kts | 99° |
| 2026-04-26 12:03 | 46.14693 | 20.45388 | 31114 ft | 515 kts | 104° |
| 2026-04-26 12:03 | 46.12622 | 20.55179 | 31111 ft | 515 kts | 104° |
| 2026-04-26 12:04 | 46.10523 | 20.65027 | 31102 ft | 515 kts | 105° |
| 2026-04-26 12:04 | 46.08418 | 20.74868 | 31101 ft | 516 kts | 105° |
| 2026-04-26 12:05 | 46.06305 | 20.84721 | 31098 ft | 515 kts | 105° |
| 2026-04-26 12:05 | 46.04188 | 20.94548 | 31095 ft | 515 kts | 105° |
| 2026-04-26 12:06 | 46.02079 | 21.04287 | 31088 ft | 515 kts | 105° |
| 2026-04-26 12:06 | 45.99948 | 21.14089 | 31081 ft | 515 kts | 105° |
| 2026-04-26 12:07 | 45.97809 | 21.23882 | 31080 ft | 514 kts | 105° |
| 2026-04-26 12:07 | 45.95660 | 21.33678 | 31077 ft | 514 kts | 105° |
| 2026-04-26 12:08 | 45.93510 | 21.43428 | 31075 ft | 515 kts | 105° |
| 2026-04-26 12:08 | 45.91336 | 21.53244 | 31075 ft | 516 kts | 105° |
| 2026-04-26 12:09 | 45.89155 | 21.63038 | 31074 ft | 516 kts | 105° |
| 2026-04-26 12:09 | 45.86959 | 21.72866 | 31074 ft | 516 kts | 106° |
| 2026-04-26 12:10 | 45.84768 | 21.82618 | 31061 ft | 517 kts | 105° |
| 2026-04-26 12:10 | 45.82572 | 21.92346 | 31065 ft | 517 kts | 105° |
| 2026-04-26 12:11 | 45.80351 | 22.02147 | 31062 ft | 518 kts | 106° |
| 2026-04-26 12:11 | 45.78119 | 22.11945 | 31064 ft | 517 kts | 106° |
| 2026-04-26 12:12 | 45.75896 | 22.21667 | 31043 ft | 517 kts | 105° |
| 2026-04-26 12:12 | 45.73651 | 22.31437 | 31043 ft | 517 kts | 106° |
| 2026-04-26 12:13 | 45.71406 | 22.41164 | 31047 ft | 518 kts | 105° |
| 2026-04-26 12:13 | 45.69148 | 22.50897 | 31039 ft | 518 kts | 106° |
| 2026-04-26 12:14 | 45.66871 | 22.60675 | 31034 ft | 518 kts | 106° |
| 2026-04-26 12:14 | 45.64587 | 22.70441 | 31024 ft | 518 kts | 107° |
| 2026-04-26 12:15 | 45.62303 | 22.80163 | 31023 ft | 519 kts | 106° |
| 2026-04-26 12:15 | 45.59994 | 22.89941 | 31012 ft | 520 kts | 106° |
| 2026-04-26 12:16 | 45.57689 | 22.99666 | 31011 ft | 519 kts | 106° |
| 2026-04-26 12:16 | 45.55373 | 23.09389 | 31010 ft | 519 kts | 106° |
| 2026-04-26 12:17 | 45.53048 | 23.19106 | 31005 ft | 519 kts | 106° |
| 2026-04-26 12:17 | 45.50716 | 23.28818 | 31021 ft | 520 kts | 106° |
| 2026-04-26 12:18 | 45.48389 | 23.38464 | 31018 ft | 519 kts | 106° |
| 2026-04-26 12:18 | 45.46016 | 23.48259 | 31020 ft | 520 kts | 106° |
| 2026-04-26 12:19 | 45.43665 | 23.57920 | 31015 ft | 519 kts | 106° |
| 2026-04-26 12:19 | 45.41304 | 23.67585 | 31013 ft | 521 kts | 107° |
| 2026-04-26 12:20 | 45.38927 | 23.77265 | 31011 ft | 520 kts | 107° |
| 2026-04-26 12:20 | 45.36547 | 23.86921 | 31012 ft | 520 kts | 107° |
| 2026-04-26 12:21 | 45.34143 | 23.96635 | 31014 ft | 520 kts | 107° |
| 2026-04-26 12:21 | 45.31750 | 24.06262 | 31010 ft | 521 kts | 107° |
| 2026-04-26 12:22 | 45.29342 | 24.15911 | 30995 ft | 521 kts | 107° |
| 2026-04-26 12:22 | 45.26914 | 24.25586 | 30990 ft | 521 kts | 107° |
| 2026-04-26 12:23 | 45.24482 | 24.35247 | 30983 ft | 520 kts | 107° |
| 2026-04-26 12:23 | 45.22051 | 24.44865 | 30976 ft | 520 kts | 107° |
| 2026-04-26 12:24 | 45.19608 | 24.54487 | 30971 ft | 520 kts | 107° |
| 2026-04-26 12:24 | 45.17149 | 24.64137 | 30977 ft | 521 kts | 107° |
| 2026-04-26 12:25 | 45.13470 | 24.78488 | 30965 ft | 520 kts | 108° |
| 2026-04-26 12:25 | 45.10994 | 24.88100 | 30960 ft | 520 kts | 108° |
| 2026-04-26 12:26 | 45.08516 | 24.97677 | 30947 ft | 519 kts | 108° |
| 2026-04-26 12:26 | 45.06042 | 25.07205 | 30926 ft | 518 kts | 108° |
| 2026-04-26 12:27 | 45.03568 | 25.16692 | 30936 ft | 518 kts | 108° |
| 2026-04-26 12:27 | 45.01064 | 25.26257 | 30928 ft | 518 kts | 108° |
| 2026-04-26 12:28 | 44.98360 | 25.35676 | 30925 ft | 520 kts | 113° |
| 2026-04-26 12:28 | 44.95187 | 25.44811 | 30926 ft | 520 kts | 115° |
| 2026-04-26 12:29 | 44.91976 | 25.53925 | 30916 ft | 520 kts | 115° |
| 2026-04-26 12:30 | 44.87165 | 25.67565 | 30907 ft | 520 kts | 115° |
| 2026-04-26 12:30 | 44.83937 | 25.76688 | 30909 ft | 520 kts | 116° |
| 2026-04-26 12:31 | 44.79117 | 25.90258 | 30894 ft | 520 kts | 116° |
| 2026-04-26 12:31 | 44.75870 | 25.99357 | 30887 ft | 519 kts | 115° |
| 2026-04-26 12:32 | 44.72638 | 26.08393 | 30886 ft | 520 kts | 116° |
| 2026-04-26 12:33 | 44.67782 | 26.21905 | 30895 ft | 519 kts | 116° |
| 2026-04-26 12:33 | 44.64504 | 26.30990 | 30897 ft | 520 kts | 116° |
| 2026-04-26 12:34 | 44.61463 | 26.39387 | 30897 ft | 520 kts | 116° |
| 2026-04-26 12:34 | 44.58178 | 26.48436 | 30900 ft | 519 kts | 116° |
| 2026-04-26 12:35 | 44.54913 | 26.57399 | 30905 ft | 519 kts | 116° |
| 2026-04-26 12:35 | 44.51624 | 26.66396 | 30908 ft | 519 kts | 117° |
| 2026-04-26 12:36 | 44.48344 | 26.75342 | 30909 ft | 519 kts | 117° |
| 2026-04-26 12:36 | 44.45029 | 26.84350 | 30911 ft | 519 kts | 117° |
| 2026-04-26 12:37 | 44.41727 | 26.93292 | 30912 ft | 519 kts | 117° |
| 2026-04-26 12:37 | 44.38425 | 27.02211 | 30913 ft | 518 kts | 117° |
| 2026-04-26 12:38 | 44.35123 | 27.11097 | 30914 ft | 518 kts | 117° |
| 2026-04-26 12:38 | 44.31796 | 27.20022 | 30911 ft | 518 kts | 117° |
| 2026-04-26 12:39 | 44.28482 | 27.28884 | 30910 ft | 517 kts | 117° |
| 2026-04-26 12:39 | 44.25164 | 27.37731 | 30908 ft | 516 kts | 117° |
| 2026-04-26 12:40 | 44.21843 | 27.46557 | 30907 ft | 516 kts | 117° |
| 2026-04-26 12:40 | 44.18510 | 27.55388 | 30909 ft | 516 kts | 117° |
| 2026-04-26 12:41 | 44.15165 | 27.64217 | 30912 ft | 515 kts | 117° |
| 2026-04-26 12:41 | 44.11844 | 27.72961 | 30917 ft | 515 kts | 118° |
| 2026-04-26 12:42 | 44.08494 | 27.81751 | 30921 ft | 516 kts | 118° |
| 2026-04-26 12:42 | 44.05122 | 27.90572 | 30922 ft | 517 kts | 118° |
| 2026-04-26 12:43 | 44.01762 | 27.99331 | 30922 ft | 517 kts | 118° |
| 2026-04-26 12:43 | 43.98383 | 28.08113 | 30923 ft | 516 kts | 118° |
| 2026-04-26 12:44 | 43.94991 | 28.16898 | 30922 ft | 516 kts | 118° |
| 2026-04-26 12:44 | 43.91627 | 28.25592 | 30924 ft | 515 kts | 118° |
| 2026-04-26 12:45 | 43.88230 | 28.34343 | 30922 ft | 516 kts | 118° |
| 2026-04-26 12:45 | 43.84837 | 28.43053 | 30924 ft | 516 kts | 118° |
| 2026-04-26 12:46 | 43.81446 | 28.51729 | 30923 ft | 516 kts | 118° |
| 2026-04-26 12:46 | 43.78019 | 28.60475 | 30922 ft | 516 kts | 118° |
| 2026-04-26 12:47 | 43.74605 | 28.69162 | 30919 ft | 516 kts | 119° |
| 2026-04-26 12:47 | 43.71154 | 28.77858 | 30923 ft | 516 kts | 121° |
| 2026-04-26 12:48 | 43.67256 | 28.86133 | 30927 ft | 516 kts | 127° |
| 2026-04-26 12:48 | 43.63059 | 28.94136 | 30931 ft | 516 kts | 127° |
| 2026-04-26 12:49 | 43.58864 | 29.02107 | 30925 ft | 516 kts | 127° |
| 2026-04-26 12:49 | 43.54649 | 29.10112 | 30921 ft | 515 kts | 127° |
| 2026-04-26 12:50 | 43.50476 | 29.18023 | 30924 ft | 515 kts | 127° |
| 2026-04-26 12:50 | 43.46249 | 29.26015 | 30923 ft | 515 kts | 127° |
| 2026-04-26 12:51 | 43.42060 | 29.33915 | 30920 ft | 515 kts | 127° |
| 2026-04-26 12:51 | 43.37821 | 29.41886 | 30927 ft | 515 kts | 127° |
| 2026-04-26 12:52 | 43.33601 | 29.49802 | 30938 ft | 515 kts | 127° |
| 2026-04-26 12:52 | 43.29379 | 29.57704 | 30938 ft | 514 kts | 127° |
| 2026-04-26 12:53 | 43.25129 | 29.65633 | 30942 ft | 514 kts | 127° |
| 2026-04-26 12:53 | 43.20924 | 29.73458 | 30946 ft | 513 kts | 127° |
| 2026-04-26 12:54 | 43.16697 | 29.81302 | 30948 ft | 513 kts | 127° |
| 2026-04-26 12:54 | 43.12472 | 29.89119 | 30951 ft | 514 kts | 127° |
| 2026-04-26 12:55 | 43.08234 | 29.96945 | 30951 ft | 513 kts | 127° |
| 2026-04-26 12:55 | 43.03970 | 30.04800 | 30953 ft | 513 kts | 127° |
| 2026-04-26 12:56 | 42.99754 | 30.12543 | 30963 ft | 512 kts | 127° |
| 2026-04-26 12:56 | 42.95500 | 30.20334 | 30961 ft | 511 kts | 127° |
| 2026-04-26 12:57 | 42.91268 | 30.28062 | 30965 ft | 511 kts | 127° |
| 2026-04-26 12:57 | 42.87009 | 30.35824 | 30966 ft | 512 kts | 127° |
| 2026-04-26 12:58 | 42.82760 | 30.43546 | 31187 ft | 514 kts | 127° |
| 2026-04-26 12:58 | 42.80623 | 30.47422 | 31579 ft | 510 kts | 127° |
| 2026-04-26 12:58 | 42.78585 | 30.51342 | 31949 ft | 508 kts | 124° |
| 2026-04-26 12:58 | 42.76704 | 30.55400 | 32248 ft | 507 kts | 120° |
| 2026-04-26 12:59 | 42.74999 | 30.59585 | 32494 ft | 507 kts | 117° |
| 2026-04-26 12:59 | 42.73463 | 30.63914 | 32724 ft | 507 kts | 113° |
| 2026-04-26 12:59 | 42.72125 | 30.68299 | 32932 ft | 507 kts | 111° |
| 2026-04-26 12:59 | 42.70961 | 30.72798 | 32963 ft | 506 kts | 107° |
| 2026-04-26 13:00 | 42.68961 | 30.81956 | 32968 ft | 506 kts | 106° |
| 2026-04-26 13:00 | 42.66981 | 30.91098 | 32969 ft | 506 kts | 106° |
| 2026-04-26 13:01 | 42.64978 | 31.00252 | 32966 ft | 506 kts | 106° |
| 2026-04-26 13:01 | 42.62978 | 31.09315 | 32969 ft | 505 kts | 106° |
| 2026-04-26 13:02 | 42.60959 | 31.18422 | 32971 ft | 504 kts | 106° |
| 2026-04-26 13:02 | 42.58933 | 31.27520 | 32971 ft | 504 kts | 106° |
| 2026-04-26 13:03 | 42.56912 | 31.36552 | 32969 ft | 504 kts | 106° |
| 2026-04-26 13:03 | 42.54879 | 31.45600 | 32969 ft | 503 kts | 106° |
| 2026-04-26 13:04 | 42.52832 | 31.54673 | 32968 ft | 504 kts | 106° |
| 2026-04-26 13:04 | 42.50785 | 31.63715 | 32970 ft | 503 kts | 106° |
| 2026-04-26 13:05 | 42.48730 | 31.72745 | 32970 ft | 503 kts | 107° |
| 2026-04-26 13:05 | 42.46678 | 31.81728 | 32973 ft | 503 kts | 107° |
| 2026-04-26 13:06 | 42.44614 | 31.90729 | 32973 ft | 501 kts | 107° |
| 2026-04-26 13:06 | 42.42541 | 31.99737 | 32970 ft | 502 kts | 107° |
| 2026-04-26 13:07 | 42.40467 | 32.08707 | 32965 ft | 502 kts | 107° |
| 2026-04-26 13:07 | 42.38388 | 32.17659 | 32971 ft | 501 kts | 107° |
| 2026-04-26 13:08 | 42.36312 | 32.26571 | 32970 ft | 500 kts | 107° |
| 2026-04-26 13:08 | 42.34223 | 32.35499 | 32967 ft | 500 kts | 107° |
| 2026-04-26 13:09 | 42.32124 | 32.44430 | 32975 ft | 499 kts | 107° |
| 2026-04-26 13:09 | 42.30025 | 32.53332 | 32968 ft | 499 kts | 107° |
| 2026-04-26 13:10 | 42.27914 | 32.62249 | 32976 ft | 499 kts | 107° |
| 2026-04-26 13:10 | 42.25811 | 32.71097 | 32970 ft | 499 kts | 107° |
| 2026-04-26 13:11 | 42.23688 | 32.79995 | 32979 ft | 498 kts | 107° |
| 2026-04-26 13:11 | 42.21570 | 32.88833 | 32977 ft | 498 kts | 107° |
| 2026-04-26 13:12 | 42.19441 | 32.97682 | 32978 ft | 497 kts | 107° |
| 2026-04-26 13:12 | 42.17320 | 33.06465 | 32979 ft | 496 kts | 107° |
| 2026-04-26 13:13 | 42.15180 | 33.15302 | 32972 ft | 497 kts | 107° |
| 2026-04-26 13:13 | 42.13041 | 33.24094 | 32977 ft | 495 kts | 107° |
| 2026-04-26 13:14 | 42.10889 | 33.32905 | 32978 ft | 495 kts | 107° |
| 2026-04-26 13:14 | 42.08745 | 33.41652 | 32977 ft | 494 kts | 107° |
| 2026-04-26 13:15 | 42.06591 | 33.50404 | 32980 ft | 494 kts | 107° |
| 2026-04-26 13:15 | 42.04438 | 33.59121 | 32977 ft | 494 kts | 107° |
| 2026-04-26 13:16 | 42.02270 | 33.67867 | 32977 ft | 494 kts | 108° |
| 2026-04-26 13:16 | 42.00102 | 33.76580 | 32976 ft | 493 kts | 108° |
| 2026-04-26 13:17 | 41.96831 | 33.89663 | 32981 ft | 492 kts | 108° |
| 2026-04-26 13:18 | 41.93560 | 34.02671 | 32985 ft | 491 kts | 108° |
| 2026-04-26 13:19 | 41.90292 | 34.15599 | 32991 ft | 490 kts | 108° |
| 2026-04-26 13:19 | 41.88107 | 34.24208 | 32999 ft | 490 kts | 108° |
| 2026-04-26 13:20 | 41.85907 | 34.32840 | 33004 ft | 490 kts | 108° |
| 2026-04-26 13:20 | 41.83696 | 34.41486 | 33012 ft | 489 kts | 108° |
| 2026-04-26 13:21 | 41.81496 | 34.50058 | 33013 ft | 488 kts | 108° |
| 2026-04-26 13:21 | 41.79290 | 34.58621 | 33013 ft | 488 kts | 108° |
| 2026-04-26 13:22 | 41.77080 | 34.67169 | 33013 ft | 488 kts | 108° |
| 2026-04-26 13:22 | 41.74846 | 34.75774 | 33015 ft | 488 kts | 108° |
| 2026-04-26 13:23 | 41.72634 | 34.84271 | 33011 ft | 488 kts | 108° |
| 2026-04-26 13:23 | 41.70392 | 34.92856 | 33014 ft | 487 kts | 109° |
| 2026-04-26 13:24 | 41.68172 | 35.01322 | 33006 ft | 487 kts | 109° |
| 2026-04-26 13:24 | 41.65921 | 35.09877 | 33000 ft | 487 kts | 109° |
| 2026-04-26 13:25 | 41.63683 | 35.18355 | 32992 ft | 487 kts | 109° |
| 2026-04-26 13:25 | 41.61419 | 35.26894 | 32991 ft | 487 kts | 109° |
| 2026-04-26 13:26 | 41.59165 | 35.35370 | 32992 ft | 487 kts | 109° |
| 2026-04-26 13:26 | 41.56895 | 35.43876 | 32991 ft | 487 kts | 109° |
| 2026-04-26 13:27 | 41.54623 | 35.52369 | 32993 ft | 487 kts | 109° |
| 2026-04-26 13:27 | 41.52351 | 35.60823 | 32985 ft | 487 kts | 109° |
| 2026-04-26 13:28 | 41.50062 | 35.69317 | 32985 ft | 487 kts | 110° |
| 2026-04-26 13:28 | 41.47762 | 35.77816 | 32970 ft | 487 kts | 110° |
| 2026-04-26 13:29 | 41.45465 | 35.86278 | 32967 ft | 487 kts | 110° |
| 2026-04-26 13:29 | 41.43147 | 35.94786 | 32963 ft | 486 kts | 110° |
| 2026-04-26 13:30 | 41.40850 | 36.03188 | 32964 ft | 485 kts | 110° |
| 2026-04-26 13:30 | 41.38530 | 36.11647 | 32966 ft | 486 kts | 110° |
| 2026-04-26 13:31 | 41.36207 | 36.20090 | 32963 ft | 485 kts | 110° |
| 2026-04-26 13:31 | 41.33900 | 36.28452 | 32956 ft | 485 kts | 110° |
| 2026-04-26 13:32 | 41.31564 | 36.36879 | 32948 ft | 485 kts | 111° |
| 2026-04-26 13:32 | 41.29226 | 36.45300 | 32939 ft | 486 kts | 110° |
| 2026-04-26 13:33 | 41.27270 | 36.53907 | 32937 ft | 487 kts | 104° |
| 2026-04-26 13:33 | 41.25999 | 36.62694 | 32931 ft | 488 kts | 98° |
| 2026-04-26 13:34 | 41.25283 | 36.71706 | 32931 ft | 488 kts | 96° |
| 2026-04-26 13:34 | 41.24635 | 36.80648 | 32934 ft | 488 kts | 96° |
| 2026-04-26 13:35 | 41.23974 | 36.89554 | 32943 ft | 487 kts | 97° |
| 2026-04-26 13:35 | 41.23298 | 36.98508 | 32940 ft | 487 kts | 97° |
| 2026-04-26 13:36 | 41.22615 | 37.07415 | 32948 ft | 487 kts | 97° |
| 2026-04-26 13:36 | 41.21922 | 37.16375 | 32952 ft | 488 kts | 97° |
| 2026-04-26 13:37 | 41.21230 | 37.25333 | 32952 ft | 488 kts | 96° |
| 2026-04-26 13:37 | 41.20576 | 37.34312 | 32948 ft | 489 kts | 97° |
| 2026-04-26 13:38 | 41.19915 | 37.43303 | 32954 ft | 489 kts | 97° |
| 2026-04-26 13:38 | 41.19245 | 37.52241 | 32958 ft | 489 kts | 97° |
| 2026-04-26 13:39 | 41.18707 | 37.61242 | 32961 ft | 489 kts | 96° |
| 2026-04-26 13:39 | 41.18000 | 37.70182 | 32956 ft | 489 kts | 98° |
| 2026-04-26 13:40 | 41.17241 | 37.79125 | 32959 ft | 489 kts | 98° |
| 2026-04-26 13:40 | 41.16471 | 37.88110 | 32957 ft | 489 kts | 98° |
| 2026-04-26 13:41 | 41.15751 | 37.97017 | 32960 ft | 489 kts | 98° |
| 2026-04-26 13:41 | 41.15040 | 38.05973 | 32957 ft | 490 kts | 98° |
| 2026-04-26 13:42 | 41.14314 | 38.14970 | 32956 ft | 490 kts | 98° |
| 2026-04-26 13:42 | 41.13576 | 38.23975 | 32953 ft | 491 kts | 98° |
| 2026-04-26 13:43 | 41.12839 | 38.32947 | 32957 ft | 491 kts | 98° |
| 2026-04-26 13:43 | 41.12094 | 38.41947 | 32958 ft | 491 kts | 98° |
| 2026-04-26 13:44 | 41.11347 | 38.50898 | 32956 ft | 491 kts | 98° |
| 2026-04-26 13:44 | 41.10585 | 38.59936 | 32956 ft | 492 kts | 98° |
| 2026-04-26 13:45 | 41.09809 | 38.68920 | 32960 ft | 492 kts | 99° |
| 2026-04-26 13:45 | 41.09013 | 38.77879 | 32952 ft | 492 kts | 99° |
| 2026-04-26 13:46 | 41.08197 | 38.86887 | 32946 ft | 493 kts | 99° |
| 2026-04-26 13:46 | 41.07374 | 38.95892 | 32945 ft | 494 kts | 100° |
| 2026-04-26 13:47 | 41.06543 | 39.04904 | 32951 ft | 495 kts | 100° |
| 2026-04-26 13:47 | 41.05699 | 39.13989 | 32959 ft | 495 kts | 100° |
| 2026-04-26 13:48 | 41.04873 | 39.22989 | 32966 ft | 495 kts | 100° |
| 2026-04-26 13:48 | 41.04036 | 39.32084 | 32970 ft | 495 kts | 100° |
| 2026-04-26 13:49 | 41.03196 | 39.41114 | 32972 ft | 495 kts | 100° |
| 2026-04-26 13:49 | 41.02348 | 39.50139 | 32970 ft | 496 kts | 100° |
| 2026-04-26 13:50 | 41.01489 | 39.59189 | 32965 ft | 496 kts | 100° |
| 2026-04-26 13:50 | 41.00647 | 39.68274 | 32957 ft | 498 kts | 99° |
| 2026-04-26 13:51 | 41.00326 | 39.77405 | 32959 ft | 502 kts | 93° |
| 2026-04-26 13:51 | 41.00754 | 39.86666 | 32955 ft | 506 kts | 86° |
| 2026-04-26 13:52 | 41.01900 | 39.95795 | 32949 ft | 509 kts | 82° |
| 2026-04-26 13:52 | 41.03292 | 40.04973 | 32944 ft | 510 kts | 82° |
| 2026-04-26 13:53 | 41.04679 | 40.14179 | 32950 ft | 510 kts | 82° |
| 2026-04-26 13:53 | 41.06041 | 40.23373 | 32949 ft | 511 kts | 82° |
| 2026-04-26 13:54 | 41.07395 | 40.32598 | 32953 ft | 512 kts | 82° |
| 2026-04-26 13:54 | 41.08741 | 40.41816 | 32957 ft | 512 kts | 82° |
| 2026-04-26 13:55 | 41.10537 | 40.54224 | 32969 ft | 514 kts | 82° |
| 2026-04-26 13:56 | 41.12762 | 40.69727 | 32972 ft | 517 kts | 83° |
| 2026-04-26 13:56 | 41.14094 | 40.79078 | 32968 ft | 516 kts | 83° |
| 2026-04-26 13:57 | 41.15421 | 40.88456 | 32971 ft | 518 kts | 83° |
| 2026-04-26 13:57 | 41.16748 | 40.97896 | 32972 ft | 520 kts | 82° |
| 2026-04-26 13:58 | 41.18064 | 41.07303 | 32978 ft | 519 kts | 83° |
| 2026-04-26 13:58 | 41.19369 | 41.16703 | 33013 ft | 520 kts | 83° |
| 2026-04-26 13:59 | 41.20673 | 41.26143 | 33031 ft | 519 kts | 82° |
| 2026-04-26 13:59 | 41.21968 | 41.35592 | 33054 ft | 520 kts | 82° |
| 2026-04-26 14:00 | 41.24520 | 41.54383 | 33081 ft | 521 kts | 82° |
| 2026-04-26 14:01 | 41.25798 | 41.63865 | 33072 ft | 520 kts | 82° |
| 2026-04-26 14:01 | 41.27070 | 41.73389 | 33062 ft | 520 kts | 83° |
| 2026-04-26 14:02 | 41.28324 | 41.82850 | 33058 ft | 520 kts | 83° |
| 2026-04-26 14:02 | 41.29579 | 41.92382 | 33082 ft | 521 kts | 83° |
| 2026-04-26 14:03 | 41.30811 | 42.01814 | 33097 ft | 521 kts | 83° |
| 2026-04-26 14:03 | 41.32050 | 42.11409 | 33098 ft | 522 kts | 83° |
| 2026-04-26 14:04 | 41.33270 | 42.20934 | 33097 ft | 522 kts | 83° |
| 2026-04-26 14:04 | 41.34479 | 42.30447 | 33106 ft | 523 kts | 83° |
| 2026-04-26 14:05 | 41.35684 | 42.39992 | 33108 ft | 523 kts | 83° |
| 2026-04-26 14:05 | 41.36882 | 42.49542 | 33120 ft | 525 kts | 83° |
| 2026-04-26 14:06 | 41.38071 | 42.59098 | 33125 ft | 525 kts | 83° |
| 2026-04-26 14:06 | 41.39257 | 42.68697 | 33127 ft | 525 kts | 83° |
| 2026-04-26 14:07 | 41.40440 | 42.78351 | 33133 ft | 527 kts | 84° |
| 2026-04-26 14:07 | 41.41615 | 42.87995 | 33140 ft | 526 kts | 84° |
| 2026-04-26 14:08 | 41.42523 | 42.97652 | 33141 ft | 525 kts | 89° |
| 2026-04-26 14:08 | 41.42626 | 43.07332 | 33143 ft | 522 kts | 96° |
| 2026-04-26 14:09 | 41.42359 | 43.17073 | 33144 ft | 522 kts | 96° |
| 2026-04-26 14:09 | 41.42086 | 43.26709 | 33145 ft | 522 kts | 95° |
| 2026-04-26 14:10 | 41.41821 | 43.36339 | 33147 ft | 523 kts | 95° |
| 2026-04-26 14:10 | 41.41552 | 43.46019 | 33145 ft | 524 kts | 95° |
| 2026-04-26 14:11 | 41.41134 | 43.60601 | 33149 ft | 526 kts | 95° |
| 2026-04-26 14:11 | 41.40847 | 43.70292 | 33154 ft | 526 kts | 96° |
| 2026-04-26 14:12 | 41.40551 | 43.79990 | 33168 ft | 526 kts | 96° |
| 2026-04-26 14:12 | 41.40244 | 43.89755 | 33155 ft | 527 kts | 95° |
| 2026-04-26 14:13 | 41.39770 | 44.04405 | 33158 ft | 527 kts | 95° |
| 2026-04-26 14:14 | 41.39445 | 44.14086 | 33150 ft | 527 kts | 95° |
| 2026-04-26 14:14 | 41.39113 | 44.23826 | 33130 ft | 526 kts | 95° |
| 2026-04-26 14:15 | 41.38770 | 44.33560 | 33118 ft | 527 kts | 95° |
| 2026-04-26 14:15 | 41.38420 | 44.43295 | 33108 ft | 526 kts | 95° |
| 2026-04-26 14:16 | 41.38059 | 44.53022 | 33104 ft | 526 kts | 95° |
| 2026-04-26 14:16 | 41.37698 | 44.62672 | 33105 ft | 525 kts | 95° |
| 2026-04-26 14:17 | 41.37323 | 44.72384 | 33100 ft | 525 kts | 96° |
| 2026-04-26 14:17 | 41.36937 | 44.82106 | 33097 ft | 525 kts | 95° |
| 2026-04-26 14:18 | 41.36548 | 44.91749 | 33102 ft | 525 kts | 95° |
| 2026-04-26 14:18 | 41.36057 | 45.01427 | 33092 ft | 523 kts | 98° |
| 2026-04-26 14:19 | 41.34861 | 45.10965 | 33089 ft | 520 kts | 106° |
| 2026-04-26 14:19 | 41.32872 | 45.20132 | 33088 ft | 517 kts | 112° |
| 2026-04-26 14:20 | 41.30525 | 45.29168 | 33074 ft | 518 kts | 112° |
| 2026-04-26 14:20 | 41.28166 | 45.38242 | 33076 ft | 518 kts | 112° |
| 2026-04-26 14:21 | 41.25823 | 45.47296 | 33068 ft | 519 kts | 111° |
| 2026-04-26 14:21 | 41.23470 | 45.56380 | 33060 ft | 518 kts | 111° |
| 2026-04-26 14:22 | 41.21126 | 45.65385 | 33063 ft | 519 kts | 112° |
| 2026-04-26 14:22 | 41.18755 | 45.74430 | 33079 ft | 517 kts | 112° |
| 2026-04-26 14:23 | 41.16375 | 45.83437 | 33067 ft | 517 kts | 112° |
| 2026-04-26 14:23 | 41.13997 | 45.92413 | 33069 ft | 517 kts | 112° |
| 2026-04-26 14:24 | 41.11614 | 46.01385 | 33065 ft | 517 kts | 111° |
| 2026-04-26 14:24 | 41.09217 | 46.10381 | 33058 ft | 517 kts | 111° |
| 2026-04-26 14:25 | 41.06807 | 46.19390 | 33063 ft | 516 kts | 112° |
| 2026-04-26 14:25 | 41.04402 | 46.28343 | 33062 ft | 516 kts | 112° |
| 2026-04-26 14:26 | 41.02021 | 46.37244 | 33064 ft | 514 kts | 111° |
| 2026-04-26 14:26 | 40.99631 | 46.46191 | 33061 ft | 513 kts | 111° |
| 2026-04-26 14:27 | 40.97262 | 46.55017 | 33059 ft | 511 kts | 111° |
| 2026-04-26 14:27 | 40.94881 | 46.63855 | 33062 ft | 509 kts | 111° |
| 2026-04-26 14:28 | 40.92510 | 46.72630 | 33059 ft | 508 kts | 112° |
| 2026-04-26 14:28 | 40.90133 | 46.81383 | 33051 ft | 508 kts | 112° |
| 2026-04-26 14:29 | 40.87729 | 46.90188 | 33052 ft | 507 kts | 112° |
| 2026-04-26 14:29 | 40.85330 | 46.98930 | 33059 ft | 506 kts | 112° |
| 2026-04-26 14:30 | 40.82936 | 47.07622 | 33053 ft | 506 kts | 112° |
| 2026-04-26 14:30 | 40.80521 | 47.16352 | 33054 ft | 507 kts | 112° |
| 2026-04-26 14:31 | 40.78094 | 47.25057 | 33058 ft | 506 kts | 112° |
| 2026-04-26 14:31 | 40.75662 | 47.33736 | 33062 ft | 506 kts | 113° |
| 2026-04-26 14:32 | 40.73217 | 47.42439 | 33072 ft | 505 kts | 112° |
| 2026-04-26 14:32 | 40.70792 | 47.51073 | 33075 ft | 504 kts | 112° |
| 2026-04-26 14:33 | 40.68353 | 47.59736 | 33077 ft | 504 kts | 113° |
| 2026-04-26 14:33 | 40.65899 | 47.68419 | 33076 ft | 503 kts | 113° |
| 2026-04-26 14:34 | 40.63444 | 47.77062 | 33075 ft | 504 kts | 113° |
| 2026-04-26 14:34 | 40.61024 | 47.85700 | 33083 ft | 504 kts | 111° |
| 2026-04-26 14:35 | 40.59127 | 47.94593 | 33076 ft | 506 kts | 105° |
| 2026-04-26 14:35 | 40.57975 | 48.03706 | 33078 ft | 508 kts | 98° |
| 2026-04-26 14:36 | 40.57472 | 48.13007 | 33076 ft | 508 kts | 95° |
| 2026-04-26 14:36 | 40.57077 | 48.22231 | 33060 ft | 509 kts | 95° |
| 2026-04-26 14:37 | 40.56662 | 48.31472 | 33064 ft | 509 kts | 95° |
| 2026-04-26 14:37 | 40.56228 | 48.40771 | 33056 ft | 509 kts | 95° |
| 2026-04-26 14:38 | 40.55785 | 48.50042 | 33056 ft | 510 kts | 95° |
| 2026-04-26 14:38 | 40.55333 | 48.59354 | 33053 ft | 510 kts | 96° |
| 2026-04-26 14:39 | 40.54872 | 48.68666 | 33050 ft | 511 kts | 96° |
| 2026-04-26 14:39 | 40.54404 | 48.77963 | 33047 ft | 511 kts | 96° |
| 2026-04-26 14:40 | 40.53927 | 48.87302 | 33046 ft | 511 kts | 96° |
| 2026-04-26 14:40 | 40.53442 | 48.96648 | 33041 ft | 511 kts | 96° |
| 2026-04-26 14:41 | 40.52953 | 49.05925 | 33034 ft | 512 kts | 96° |
| 2026-04-26 14:41 | 40.52454 | 49.15230 | 33039 ft | 512 kts | 96° |
| 2026-04-26 14:42 | 40.51950 | 49.24501 | 33040 ft | 512 kts | 96° |
| 2026-04-26 14:42 | 40.51436 | 49.33812 | 33044 ft | 512 kts | 96° |
| 2026-04-26 14:43 | 40.50912 | 49.43174 | 33047 ft | 513 kts | 96° |
| 2026-04-26 14:43 | 40.50385 | 49.52462 | 33047 ft | 513 kts | 96° |
| 2026-04-26 14:44 | 40.49845 | 49.61839 | 33053 ft | 513 kts | 96° |
| 2026-04-26 14:44 | 40.49301 | 49.71149 | 33057 ft | 512 kts | 97° |
| 2026-04-26 14:45 | 40.48743 | 49.80535 | 33066 ft | 513 kts | 97° |
| 2026-04-26 14:45 | 40.48185 | 49.89803 | 33073 ft | 513 kts | 97° |
| 2026-04-26 14:46 | 40.47613 | 49.99171 | 33076 ft | 513 kts | 97° |
| 2026-04-26 14:46 | 40.46825 | 50.08382 | 33076 ft | 510 kts | 102° |
| 2026-04-26 14:47 | 40.45612 | 50.17547 | 33081 ft | 510 kts | 103° |
| 2026-04-26 14:47 | 40.44368 | 50.26717 | 33077 ft | 511 kts | 103° |
| 2026-04-26 14:48 | 40.43125 | 50.35903 | 33078 ft | 512 kts | 103° |
| 2026-04-26 14:48 | 40.41880 | 50.45074 | 33076 ft | 511 kts | 103° |
| 2026-04-26 14:49 | 40.40632 | 50.54203 | 33078 ft | 511 kts | 103° |
| 2026-04-26 14:49 | 40.39372 | 50.63380 | 33080 ft | 511 kts | 103° |
| 2026-04-26 14:50 | 40.38107 | 50.72535 | 33072 ft | 511 kts | 103° |
| 2026-04-26 14:50 | 40.36833 | 50.81700 | 33084 ft | 511 kts | 103° |
| 2026-04-26 14:51 | 40.35562 | 50.90793 | 33083 ft | 511 kts | 103° |
| 2026-04-26 14:51 | 40.34276 | 50.99922 | 33088 ft | 511 kts | 103° |
| 2026-04-26 14:52 | 40.32977 | 51.09105 | 33083 ft | 511 kts | 103° |
| 2026-04-26 14:52 | 40.31685 | 51.18187 | 33085 ft | 511 kts | 103° |
| 2026-04-26 14:53 | 40.30364 | 51.27397 | 33075 ft | 512 kts | 103° |
| 2026-04-26 14:53 | 40.29044 | 51.36561 | 33082 ft | 513 kts | 103° |
| 2026-04-26 14:54 | 40.27721 | 51.45697 | 33084 ft | 513 kts | 103° |
| 2026-04-26 14:54 | 40.26378 | 51.54899 | 33089 ft | 514 kts | 103° |
| 2026-04-26 14:55 | 40.25035 | 51.64073 | 33082 ft | 514 kts | 103° |
| 2026-04-26 14:55 | 40.23677 | 51.73291 | 33083 ft | 514 kts | 104° |
| 2026-04-26 14:56 | 40.22316 | 51.82472 | 33085 ft | 515 kts | 104° |
| 2026-04-26 14:56 | 40.20954 | 51.91609 | 33085 ft | 514 kts | 104° |
| 2026-04-26 14:57 | 40.19575 | 52.00810 | 33083 ft | 515 kts | 104° |
| 2026-04-26 14:57 | 40.18187 | 52.10011 | 33084 ft | 515 kts | 104° |
| 2026-04-26 14:58 | 40.16794 | 52.19187 | 33085 ft | 515 kts | 104° |
| 2026-04-26 14:58 | 40.15388 | 52.28408 | 33083 ft | 515 kts | 104° |
| 2026-04-26 14:59 | 40.13983 | 52.37561 | 33081 ft | 515 kts | 104° |
| 2026-04-26 14:59 | 40.12575 | 52.46699 | 33082 ft | 514 kts | 104° |
| 2026-04-26 15:00 | 40.11151 | 52.55878 | 33085 ft | 515 kts | 104° |
| 2026-04-26 15:00 | 40.09731 | 52.64993 | 33086 ft | 517 kts | 104° |
| 2026-04-26 15:01 | 40.08293 | 52.74173 | 33087 ft | 516 kts | 105° |
| 2026-04-26 15:01 | 40.06845 | 52.83354 | 33088 ft | 517 kts | 105° |
| 2026-04-26 15:02 | 40.05499 | 52.92580 | 33084 ft | 518 kts | 101° |
| 2026-04-26 15:02 | 40.04841 | 53.01892 | 33082 ft | 520 kts | 94° |
| 2026-04-26 15:03 | 40.04986 | 53.11344 | 33086 ft | 523 kts | 87° |
| 2026-04-26 15:03 | 40.05806 | 53.20775 | 33101 ft | 524 kts | 84° |
| 2026-04-26 15:04 | 40.06720 | 53.30217 | 33095 ft | 525 kts | 84° |
| 2026-04-26 15:04 | 40.07612 | 53.39668 | 33098 ft | 525 kts | 84° |
| 2026-04-26 15:05 | 40.08482 | 53.49107 | 33093 ft | 526 kts | 84° |
| 2026-04-26 15:05 | 40.09346 | 53.58602 | 33088 ft | 525 kts | 84° |
| 2026-04-26 15:06 | 40.10193 | 53.68022 | 33094 ft | 526 kts | 84° |
| 2026-04-26 15:06 | 40.11037 | 53.77492 | 33094 ft | 526 kts | 84° |
| 2026-04-26 15:07 | 40.12288 | 53.91678 | 33086 ft | 525 kts | 84° |
| 2026-04-26 15:07 | 40.13111 | 54.01137 | 33087 ft | 524 kts | 84° |
| 2026-04-26 15:08 | 40.13926 | 54.10573 | 33094 ft | 525 kts | 84° |
| 2026-04-26 15:08 | 40.14736 | 54.20056 | 33102 ft | 525 kts | 84° |
| 2026-04-26 15:09 | 40.15533 | 54.29489 | 33101 ft | 526 kts | 84° |
| 2026-04-26 15:09 | 40.16331 | 54.39005 | 33103 ft | 526 kts | 84° |
| 2026-04-26 15:10 | 40.16984 | 54.46867 | 33093 ft | 526 kts | 84° |
| 2026-04-26 15:10 | 40.17897 | 54.57981 | 33107 ft | 526 kts | 84° |
| 2026-04-26 15:11 | 40.18669 | 54.67485 | 33096 ft | 525 kts | 85° |
| 2026-04-26 15:11 | 40.19429 | 54.76923 | 33095 ft | 525 kts | 85° |
| 2026-04-26 15:12 | 40.20185 | 54.86428 | 33099 ft | 524 kts | 85° |
| 2026-04-26 15:12 | 40.20927 | 54.95869 | 33095 ft | 524 kts | 85° |
| 2026-04-26 15:13 | 40.21668 | 55.05386 | 33100 ft | 525 kts | 85° |
| 2026-04-26 15:13 | 40.22396 | 55.14839 | 33101 ft | 525 kts | 85° |
| 2026-04-26 15:14 | 40.23120 | 55.24317 | 33101 ft | 525 kts | 85° |
| 2026-04-26 15:14 | 40.23831 | 55.33749 | 33111 ft | 524 kts | 85° |
| 2026-04-26 15:15 | 40.24537 | 55.43233 | 33115 ft | 524 kts | 85° |
| 2026-04-26 15:15 | 40.25235 | 55.52704 | 33122 ft | 524 kts | 85° |
| 2026-04-26 15:16 | 40.25922 | 55.62173 | 33128 ft | 523 kts | 85° |
| 2026-04-26 15:16 | 40.26869 | 55.71607 | 33131 ft | 523 kts | 80° |
| 2026-04-26 15:17 | 40.28244 | 55.79324 | 33136 ft | 523 kts | 74° |
| 2026-04-26 15:17 | 40.30997 | 55.89824 | 33133 ft | 523 kts | 69° |
| 2026-04-26 15:18 | 40.33538 | 55.98709 | 33133 ft | 524 kts | 69° |
| 2026-04-26 15:18 | 40.36064 | 56.07626 | 33136 ft | 525 kts | 69° |
| 2026-04-26 15:19 | 40.38578 | 56.16581 | 33134 ft | 524 kts | 69° |
| 2026-04-26 15:19 | 40.41096 | 56.25601 | 33135 ft | 524 kts | 69° |
| 2026-04-26 15:20 | 40.43579 | 56.34535 | 33142 ft | 525 kts | 69° |
| 2026-04-26 15:20 | 40.46069 | 56.43520 | 33145 ft | 525 kts | 69° |
| 2026-04-26 15:21 | 40.48561 | 56.52548 | 33144 ft | 525 kts | 69° |
| 2026-04-26 15:21 | 40.51031 | 56.61526 | 33144 ft | 525 kts | 69° |
| 2026-04-26 15:22 | 40.53510 | 56.70566 | 33149 ft | 525 kts | 70° |
| 2026-04-26 15:22 | 40.55980 | 56.79608 | 33146 ft | 526 kts | 70° |
| 2026-04-26 15:23 | 40.58426 | 56.88607 | 33151 ft | 527 kts | 70° |
| 2026-04-26 15:23 | 40.60892 | 56.97710 | 33149 ft | 527 kts | 70° |
| 2026-04-26 15:24 | 40.63346 | 57.06811 | 33158 ft | 528 kts | 70° |
| 2026-04-26 15:24 | 40.65790 | 57.15895 | 33157 ft | 527 kts | 70° |
| 2026-04-26 15:25 | 40.67813 | 57.23451 | 33162 ft | 526 kts | 70° |
| 2026-04-26 15:25 | 40.70630 | 57.34022 | 33162 ft | 527 kts | 70° |
| 2026-04-26 15:26 | 40.73052 | 57.43151 | 33161 ft | 527 kts | 70° |
| 2026-04-26 15:26 | 40.75458 | 57.52261 | 33164 ft | 527 kts | 70° |
| 2026-04-26 15:27 | 40.77845 | 57.61334 | 33167 ft | 527 kts | 70° |
| 2026-04-26 15:27 | 40.80352 | 57.70427 | 33169 ft | 528 kts | 69° |
| 2026-04-26 15:28 | 40.82960 | 57.79463 | 33171 ft | 528 kts | 69° |
| 2026-04-26 15:28 | 40.85564 | 57.88560 | 33170 ft | 528 kts | 69° |
| 2026-04-26 15:29 | 40.88137 | 57.97620 | 33169 ft | 528 kts | 69° |
| 2026-04-26 15:30 | 40.93252 | 58.15783 | 33166 ft | 528 kts | 69° |
| 2026-04-26 15:30 | 40.95799 | 58.24885 | 33174 ft | 528 kts | 69° |
| 2026-04-26 15:31 | 40.99611 | 58.38554 | 33184 ft | 528 kts | 69° |
| 2026-04-26 15:32 | 41.02979 | 58.50700 | 33183 ft | 528 kts | 69° |
| 2026-04-26 15:32 | 41.05915 | 58.61327 | 33179 ft | 528 kts | 69° |
| 2026-04-26 15:33 | 41.08412 | 58.70398 | 33190 ft | 528 kts | 69° |
| 2026-04-26 15:33 | 41.10923 | 58.79566 | 33189 ft | 528 kts | 70° |
| 2026-04-26 15:34 | 41.13421 | 58.88714 | 33188 ft | 529 kts | 69° |
| 2026-04-26 15:34 | 41.15926 | 58.97926 | 33194 ft | 530 kts | 69° |
| 2026-04-26 15:35 | 41.18391 | 59.07021 | 33200 ft | 529 kts | 69° |
| 2026-04-26 15:35 | 41.20878 | 59.16231 | 33197 ft | 529 kts | 69° |
| 2026-04-26 15:36 | 41.23334 | 59.25362 | 33187 ft | 528 kts | 69° |
| 2026-04-26 15:36 | 41.25791 | 59.34522 | 33190 ft | 528 kts | 69° |
| 2026-04-26 15:37 | 41.28247 | 59.43728 | 33194 ft | 529 kts | 69° |
| 2026-04-26 15:37 | 41.30696 | 59.52933 | 33200 ft | 529 kts | 70° |
| 2026-04-26 15:38 | 41.33125 | 59.62106 | 33200 ft | 529 kts | 70° |
| 2026-04-26 15:38 | 41.35510 | 59.71313 | 33204 ft | 529 kts | 71° |
| 2026-04-26 15:39 | 41.37769 | 59.80627 | 33202 ft | 530 kts | 72° |
| 2026-04-26 15:39 | 41.39640 | 59.88390 | 33200 ft | 530 kts | 72° |
| 2026-04-26 15:40 | 41.42269 | 59.99287 | 33203 ft | 530 kts | 72° |
| 2026-04-26 15:40 | 41.44505 | 60.08577 | 33206 ft | 530 kts | 71° |
| 2026-04-26 15:41 | 41.46746 | 60.17926 | 33206 ft | 531 kts | 71° |
| 2026-04-26 15:41 | 41.48976 | 60.27300 | 33205 ft | 532 kts | 72° |
| 2026-04-26 15:42 | 41.51172 | 60.36650 | 33212 ft | 531 kts | 71° |
| 2026-04-26 15:42 | 41.53382 | 60.46096 | 33214 ft | 532 kts | 71° |
| 2026-04-26 15:43 | 41.55570 | 60.55479 | 33219 ft | 531 kts | 71° |
| 2026-04-26 15:44 | 41.58933 | 60.69505 | 33214 ft | 531 kts | 70° |
| 2026-04-26 15:44 | 41.62618 | 60.83465 | 33217 ft | 532 kts | 69° |
| 2026-04-26 15:45 | 41.66271 | 60.97398 | 33218 ft | 532 kts | 69° |
| 2026-04-26 15:46 | 41.69922 | 61.11436 | 33242 ft | 535 kts | 69° |
| 2026-04-26 15:46 | 41.71144 | 61.16159 | 33556 ft | 534 kts | 69° |
| 2026-04-26 15:46 | 41.71955 | 61.19294 | 33856 ft | 531 kts | 69° |
| 2026-04-26 15:47 | 41.73536 | 61.25426 | 34344 ft | 528 kts | 69° |
| 2026-04-26 15:47 | 41.75931 | 61.34728 | 34810 ft | 528 kts | 70° |
| 2026-04-26 15:47 | 41.77113 | 61.39341 | 34987 ft | 528 kts | 70° |
| 2026-04-26 15:48 | 41.78296 | 61.43963 | 35205 ft | 528 kts | 70° |
| 2026-04-26 15:48 | 41.80676 | 61.53301 | 35306 ft | 528 kts | 70° |
| 2026-04-26 15:49 | 41.83034 | 61.62581 | 35308 ft | 528 kts | 70° |
| 2026-04-26 15:49 | 41.85398 | 61.71926 | 35309 ft | 528 kts | 70° |
| 2026-04-26 15:50 | 41.87736 | 61.81209 | 35305 ft | 528 kts | 70° |
| 2026-04-26 15:50 | 41.90075 | 61.90545 | 35308 ft | 528 kts | 70° |
| 2026-04-26 15:51 | 41.92385 | 61.99817 | 35312 ft | 528 kts | 71° |
| 2026-04-26 15:51 | 41.94720 | 62.09223 | 35314 ft | 528 kts | 70° |
| 2026-04-26 15:52 | 41.97042 | 62.18572 | 35313 ft | 527 kts | 70° |
| 2026-04-26 15:52 | 41.99348 | 62.27891 | 35316 ft | 528 kts | 71° |
| 2026-04-26 15:53 | 42.01643 | 62.37220 | 35311 ft | 528 kts | 71° |
| 2026-04-26 15:53 | 42.03946 | 62.46622 | 35312 ft | 528 kts | 71° |
| 2026-04-26 15:54 | 42.06229 | 62.55986 | 35307 ft | 529 kts | 71° |
| 2026-04-26 15:54 | 42.08513 | 62.65391 | 35308 ft | 528 kts | 71° |
| 2026-04-26 15:55 | 42.10771 | 62.74710 | 35308 ft | 528 kts | 71° |
| 2026-04-26 15:55 | 42.13034 | 62.84098 | 35306 ft | 527 kts | 71° |
| 2026-04-26 15:56 | 42.15293 | 62.93496 | 35302 ft | 527 kts | 71° |
| 2026-04-26 15:56 | 42.17526 | 63.02832 | 35303 ft | 527 kts | 71° |
| 2026-04-26 15:57 | 42.19792 | 63.12304 | 35310 ft | 528 kts | 71° |
| 2026-04-26 15:57 | 42.22018 | 63.21662 | 35308 ft | 528 kts | 71° |
| 2026-04-26 15:58 | 42.24244 | 63.31056 | 35308 ft | 528 kts | 71° |
| 2026-04-26 15:58 | 42.26473 | 63.40514 | 35312 ft | 527 kts | 71° |
| 2026-04-26 15:59 | 42.28679 | 63.49911 | 35316 ft | 528 kts | 71° |
| 2026-04-26 15:59 | 42.30892 | 63.59370 | 35319 ft | 527 kts | 71° |
| 2026-04-26 16:00 | 42.33099 | 63.68845 | 35324 ft | 528 kts | 72° |
| 2026-04-26 16:00 | 42.35278 | 63.78244 | 35320 ft | 527 kts | 72° |
| 2026-04-26 16:01 | 42.37469 | 63.87744 | 35321 ft | 527 kts | 72° |
| 2026-04-26 16:01 | 42.39637 | 63.97185 | 35319 ft | 527 kts | 72° |
| 2026-04-26 16:02 | 42.41792 | 64.06653 | 35313 ft | 527 kts | 72° |
| 2026-04-26 16:02 | 42.43910 | 64.16110 | 35314 ft | 528 kts | 72° |
| 2026-04-26 16:03 | 42.46032 | 64.25592 | 35311 ft | 527 kts | 72° |
| 2026-04-26 16:03 | 42.48165 | 64.35045 | 35310 ft | 527 kts | 72° |
| 2026-04-26 16:04 | 42.50297 | 64.44530 | 35309 ft | 527 kts | 72° |
| 2026-04-26 16:04 | 42.52401 | 64.53948 | 35311 ft | 527 kts | 72° |
| 2026-04-26 16:05 | 42.54512 | 64.63448 | 35312 ft | 527 kts | 72° |
| 2026-04-26 16:05 | 42.56604 | 64.72900 | 35310 ft | 526 kts | 73° |
| 2026-04-26 16:06 | 42.58699 | 64.82413 | 35308 ft | 526 kts | 73° |
| 2026-04-26 16:06 | 42.60772 | 64.91860 | 35312 ft | 525 kts | 73° |
| 2026-04-26 16:07 | 42.62846 | 65.01364 | 35306 ft | 526 kts | 73° |
| 2026-04-26 16:07 | 42.64896 | 65.10794 | 35309 ft | 526 kts | 73° |
| 2026-04-26 16:08 | 42.66959 | 65.20322 | 35309 ft | 526 kts | 73° |
| 2026-04-26 16:08 | 42.69004 | 65.29810 | 35310 ft | 525 kts | 73° |
| 2026-04-26 16:09 | 42.71043 | 65.39320 | 35309 ft | 525 kts | 73° |
| 2026-04-26 16:09 | 42.73073 | 65.48836 | 35312 ft | 525 kts | 73° |
| 2026-04-26 16:10 | 42.75080 | 65.58278 | 35313 ft | 524 kts | 73° |
| 2026-04-26 16:10 | 42.77094 | 65.67802 | 35312 ft | 524 kts | 74° |
| 2026-04-26 16:11 | 42.79091 | 65.77296 | 35313 ft | 525 kts | 74° |
| 2026-04-26 16:11 | 42.81090 | 65.86817 | 35315 ft | 525 kts | 74° |
| 2026-04-26 16:12 | 42.83087 | 65.96385 | 35309 ft | 525 kts | 74° |
| 2026-04-26 16:12 | 42.86048 | 66.10677 | 35312 ft | 525 kts | 74° |
| 2026-04-26 16:13 | 42.88006 | 66.20242 | 35309 ft | 524 kts | 74° |
| 2026-04-26 16:13 | 42.89948 | 66.29787 | 35308 ft | 525 kts | 74° |
| 2026-04-26 16:14 | 42.91875 | 66.39315 | 35305 ft | 524 kts | 74° |
| 2026-04-26 16:15 | 42.94766 | 66.53690 | 35232 ft | 525 kts | 75° |
| 2026-04-26 16:15 | 42.96690 | 66.63281 | 35208 ft | 525 kts | 74° |
| 2026-04-26 16:16 | 42.99603 | 66.77639 | 35193 ft | 525 kts | 75° |
| 2026-04-26 16:16 | 43.01518 | 66.87244 | 35189 ft | 525 kts | 75° |
| 2026-04-26 16:17 | 43.03409 | 66.96824 | 35183 ft | 526 kts | 75° |
| 2026-04-26 16:17 | 43.05294 | 67.06422 | 35181 ft | 526 kts | 75° |
| 2026-04-26 16:18 | 43.08116 | 67.20872 | 35176 ft | 526 kts | 75° |
| 2026-04-26 16:19 | 43.10916 | 67.35319 | 35178 ft | 526 kts | 76° |
| 2026-04-26 16:20 | 43.13705 | 67.49812 | 35175 ft | 525 kts | 75° |
| 2026-04-26 16:20 | 43.16473 | 67.64274 | 35175 ft | 525 kts | 75° |
| 2026-04-26 16:21 | 43.18304 | 67.73907 | 35171 ft | 525 kts | 76° |
| 2026-04-26 16:21 | 43.20132 | 67.83569 | 35175 ft | 524 kts | 76° |
| 2026-04-26 16:22 | 43.21942 | 67.93168 | 35174 ft | 523 kts | 76° |
| 2026-04-26 16:22 | 43.23743 | 68.02804 | 35175 ft | 523 kts | 76° |
| 2026-04-26 16:23 | 43.25538 | 68.12450 | 35171 ft | 523 kts | 76° |
| 2026-04-26 16:23 | 43.27328 | 68.22111 | 35181 ft | 522 kts | 76° |